All Spectrum Aviation - Van Nuys Airport - KVNY

HOME

Van Nuys Tower Recordings

Condor Squadron KVNY Webcam

Visit our Electronics Store

Condor Squadron Webcam - Van Nuys Airport - KVNY
Picture taken: Fri, 30 Sep 2016 01:13:26 -0700
YouTube Channel!    Latest Timelapse Movie    Full Size Image    Regular Size Image    

2016/09/30 07:51 KVNY 300751Z 09003KT 10SM CLR 23/14 A3004 RMK AO2 SLP161 T02280144 403560200

HOME

Van Nuys Tower Recordings

Condor Squadron KVNY Webcam

Visit our Electronics Store